sensor_id;sensor_type;location;lat;lon;timestamp;pressure;altitude;pressure_sealevel;temperature;humidity
64189;BME280;50493;50.970;10.082;2023-12-20T00:00:39;99030.44;;;5.89;71.12
64189;BME280;50493;50.970;10.082;2023-12-20T00:03:04;99021.84;;;5.85;68.14
64189;BME280;50493;50.970;10.082;2023-12-20T00:05:30;99020.97;;;5.85;69.24
64189;BME280;50493;50.970;10.082;2023-12-20T00:07:58;99026.25;;;5.72;68.54
64189;BME280;50493;50.970;10.082;2023-12-20T00:10:24;99020.28;;;5.64;69.69
64189;BME280;50493;50.970;10.082;2023-12-20T00:12:49;99021.97;;;5.68;69.77
64189;BME280;50493;50.970;10.082;2023-12-20T00:15:14;99019.19;;;5.93;71.07
64189;BME280;50493;50.970;10.082;2023-12-20T00:17:40;99027.03;;;5.85;69.08
64189;BME280;50493;50.970;10.082;2023-12-20T00:20:06;99020.97;;;5.88;70.86
64189;BME280;50493;50.970;10.082;2023-12-20T00:22:32;99026.16;;;5.85;69.13
64189;BME280;50493;50.970;10.082;2023-12-20T00:24:58;99026.97;;;5.91;73.19
64189;BME280;50493;50.970;10.082;2023-12-20T00:27:24;99026.22;;;5.79;71.10
64189;BME280;50493;50.970;10.082;2023-12-20T00:29:49;99017.59;;;5.73;68.73
64189;BME280;50493;50.970;10.082;2023-12-20T00:32:15;99013.28;;;5.77;70.70
64189;BME280;50493;50.970;10.082;2023-12-20T00:34:40;99022.81;;;5.72;70.91
64189;BME280;50493;50.970;10.082;2023-12-20T00:37:06;99021.06;;;5.72;71.40
64189;BME280;50493;50.970;10.082;2023-12-20T00:39:31;99021.03;;;5.80;69.55
64189;BME280;50493;50.970;10.082;2023-12-20T00:41:59;99015.69;;;5.97;71.79
64189;BME280;50493;50.970;10.082;2023-12-20T00:44:24;99011.41;;;5.93;70.92
64189;BME280;50493;50.970;10.082;2023-12-20T00:46:50;99020.97;;;5.86;72.16
64189;BME280;50493;50.970;10.082;2023-12-20T00:49:15;99019.16;;;5.96;73.17
64189;BME280;50493;50.970;10.082;2023-12-20T00:51:40;99013.81;;;6.12;71.95
64189;BME280;50493;50.970;10.082;2023-12-20T00:54:06;99010.34;;;6.13;71.12
64189;BME280;50493;50.970;10.082;2023-12-20T00:56:31;99018.28;;;5.96;69.38
64189;BME280;50493;50.970;10.082;2023-12-20T00:58:58;99014.00;;;5.93;69.11
64189;BME280;50493;50.970;10.082;2023-12-20T01:01:23;99022.69;;;5.86;71.71
64189;BME280;50493;50.970;10.082;2023-12-20T01:03:48;99010.41;;;6.09;70.09
64189;BME280;50493;50.970;10.082;2023-12-20T01:06:16;98996.53;;;6.10;71.36
64189;BME280;50493;50.970;10.082;2023-12-20T01:08:41;98993.31;;;5.85;69.52
64189;BME280;50493;50.970;10.082;2023-12-20T01:11:07;98994.38;;;5.59;71.38
64189;BME280;50493;50.970;10.082;2023-12-20T01:13:32;98993.25;;;5.93;70.55
64189;BME280;50493;50.970;10.082;2023-12-20T01:15:59;98999.41;;;5.78;70.25
64189;BME280;50493;50.970;10.082;2023-12-20T01:18:24;99004.47;;;5.95;70.63
64189;BME280;50493;50.970;10.082;2023-12-20T01:20:50;99001.78;;;6.04;71.84
64189;BME280;50493;50.970;10.082;2023-12-20T01:23:15;98996.59;;;6.04;72.15
64189;BME280;50493;50.970;10.082;2023-12-20T01:25:40;98988.16;;;5.84;69.00
64189;BME280;50493;50.970;10.082;2023-12-20T01:28:06;98985.34;;;6.05;70.36
64189;BME280;50493;50.970;10.082;2023-12-20T01:30:31;98990.59;;;5.98;70.08
64189;BME280;50493;50.970;10.082;2023-12-20T01:32:59;98994.94;;;5.94;72.13
64189;BME280;50493;50.970;10.082;2023-12-20T01:35:25;98993.16;;;6.04;72.13
64189;BME280;50493;50.970;10.082;2023-12-20T01:37:50;98989.63;;;6.06;69.17
64189;BME280;50493;50.970;10.082;2023-12-20T01:40:15;98990.59;;;5.98;70.51
64189;BME280;50493;50.970;10.082;2023-12-20T01:42:41;98990.56;;;6.04;71.55
64189;BME280;50493;50.970;10.082;2023-12-20T01:45:08;98990.47;;;6.10;70.28
64189;BME280;50493;50.970;10.082;2023-12-20T01:47:33;98990.47;;;6.12;70.93
64189;BME280;50493;50.970;10.082;2023-12-20T01:50:00;98996.72;;;5.87;68.99
64189;BME280;50493;50.970;10.082;2023-12-20T01:52:28;98993.13;;;6.02;73.04
64189;BME280;50493;50.970;10.082;2023-12-20T01:54:55;98987.91;;;6.08;68.37
64189;BME280;50493;50.970;10.082;2023-12-20T01:57:26;98975.66;;;6.20;69.53
64189;BME280;50493;50.970;10.082;2023-12-20T01:59:51;98988.88;;;5.97;71.06
64189;BME280;50493;50.970;10.082;2023-12-20T02:02:17;98989.75;;;5.94;70.03
64189;BME280;50493;50.970;10.082;2023-12-20T02:04:42;98988.84;;;6.00;71.56
64189;BME280;50493;50.970;10.082;2023-12-20T02:07:09;98983.56;;;6.12;71.55
64189;BME280;50493;50.970;10.082;2023-12-20T02:09:36;98985.19;;;6.21;72.91
64189;BME280;50493;50.970;10.082;2023-12-20T02:12:03;98986.13;;;6.10;73.96
64189;BME280;50493;50.970;10.082;2023-12-20T02:14:28;98986.19;;;6.06;72.18
64189;BME280;50493;50.970;10.082;2023-12-20T02:16:54;98971.47;;;6.06;70.33
64189;BME280;50493;50.970;10.082;2023-12-20T02:19:19;98961.69;;;6.33;71.49
64189;BME280;50493;50.970;10.082;2023-12-20T02:21:46;98946.09;;;6.33;71.52
64189;BME280;50493;50.970;10.082;2023-12-20T02:24:11;98949.50;;;6.38;70.38
64189;BME280;50493;50.970;10.082;2023-12-20T02:26:37;98956.59;;;6.27;71.33
64189;BME280;50493;50.970;10.082;2023-12-20T02:29:03;98954.97;;;6.15;68.15
64189;BME280;50493;50.970;10.082;2023-12-20T02:31:28;98960.94;;;6.23;70.51
64189;BME280;50493;50.970;10.082;2023-12-20T02:33:54;98948.88;;;6.18;69.86
64189;BME280;50493;50.970;10.082;2023-12-20T02:36:19;98952.50;;;6.03;70.88
64189;BME280;50493;50.970;10.082;2023-12-20T02:38:46;98947.13;;;6.18;69.31
64189;BME280;50493;50.970;10.082;2023-12-20T02:41:12;98944.50;;;6.23;69.17
64189;BME280;50493;50.970;10.082;2023-12-20T02:43:37;98945.22;;;6.36;72.31
64189;BME280;50493;50.970;10.082;2023-12-20T02:46:02;98949.50;;;6.38;71.20
64189;BME280;50493;50.970;10.082;2023-12-20T02:48:28;98962.38;;;6.49;70.72
64189;BME280;50493;50.970;10.082;2023-12-20T02:50:54;98970.25;;;6.41;70.68
64189;BME280;50493;50.970;10.082;2023-12-20T02:53:19;98965.88;;;6.47;69.07
64189;BME280;50493;50.970;10.082;2023-12-20T02:55:46;98966.00;;;6.34;69.98
64189;BME280;50493;50.970;10.082;2023-12-20T02:58:11;98953.78;;;6.42;69.97
64189;BME280;50493;50.970;10.082;2023-12-20T03:00:37;98953.22;;;6.16;70.79
64189;BME280;50493;50.970;10.082;2023-12-20T03:03:02;98947.97;;;6.22;69.20
64189;BME280;50493;50.970;10.082;2023-12-20T03:05:27;98938.44;;;6.25;68.57
64189;BME280;50493;50.970;10.082;2023-12-20T03:07:53;98947.97;;;6.22;71.30
64189;BME280;50493;50.970;10.082;2023-12-20T03:10:18;98941.91;;;6.23;70.12
64189;BME280;50493;50.970;10.082;2023-12-20T03:12:45;98941.88;;;6.26;68.92
64189;BME280;50493;50.970;10.082;2023-12-20T03:15:10;98940.91;;;6.36;71.05
64189;BME280;50493;50.970;10.082;2023-12-20T03:17:36;98944.28;;;6.44;70.24
64189;BME280;50493;50.970;10.082;2023-12-20T03:20:01;98940.91;;;6.33;68.54
64189;BME280;50493;50.970;10.082;2023-12-20T03:22:27;98946.16;;;6.30;69.08
64189;BME280;50493;50.970;10.082;2023-12-20T03:24:52;98950.47;;;6.31;69.95
64189;BME280;50493;50.970;10.082;2023-12-20T03:27:17;98962.59;;;6.29;70.73
64189;BME280;50493;50.970;10.082;2023-12-20T03:29:44;98958.63;;;5.94;70.54
64189;BME280;50493;50.970;10.082;2023-12-20T03:32:09;98964.63;;;6.04;70.38
64189;BME280;50493;50.970;10.082;2023-12-20T03:34:35;98967.47;;;5.74;69.76
64189;BME280;50493;50.970;10.082;2023-12-20T03:37:00;98958.91;;;5.66;69.78
64189;BME280;50493;50.970;10.082;2023-12-20T03:39:25;98961.91;;;6.12;71.13
64189;BME280;50493;50.970;10.082;2023-12-20T03:41:51;98963.69;;;6.09;69.19
64189;BME280;50493;50.970;10.082;2023-12-20T03:44:16;98961.69;;;6.33;71.21
64189;BME280;50493;50.970;10.082;2023-12-20T03:46:43;98963.34;;;6.42;70.49
64189;BME280;50493;50.970;10.082;2023-12-20T03:49:08;98962.53;;;6.35;69.95
64189;BME280;50493;50.970;10.082;2023-12-20T03:51:33;98960.28;;;6.04;71.19
64189;BME280;50493;50.970;10.082;2023-12-20T03:53:59;98963.78;;;5.96;70.59
64189;BME280;50493;50.970;10.082;2023-12-20T03:56:24;98965.53;;;5.95;71.21
64189;BME280;50493;50.970;10.082;2023-12-20T03:58:49;98962.09;;;5.96;70.92
64189;BME280;50493;50.970;10.082;2023-12-20T04:01:15;98974.09;;;6.08;70.79
64189;BME280;50493;50.970;10.082;2023-12-20T04:03:41;98967.31;;;5.93;71.82
64189;BME280;50493;50.970;10.082;2023-12-20T04:06:06;98956.22;;;5.77;71.75
64189;BME280;50493;50.970;10.082;2023-12-20T04:08:32;98957.88;;;5.83;71.60
64189;BME280;50493;50.970;10.082;2023-12-20T04:10:57;98964.59;;;6.02;72.72
64189;BME280;50493;50.970;10.082;2023-12-20T04:13:22;98968.06;;;6.04;71.23
64189;BME280;50493;50.970;10.082;2023-12-20T04:15:48;98973.75;;;5.47;69.99
64189;BME280;50493;50.970;10.082;2023-12-20T04:18:15;98976.66;;;6.09;72.02
64189;BME280;50493;50.970;10.082;2023-12-20T04:20:42;98967.06;;;6.18;69.98
64189;BME280;50493;50.970;10.082;2023-12-20T04:23:07;98973.88;;;6.25;71.10
64189;BME280;50493;50.970;10.082;2023-12-20T04:25:32;98967.66;;;6.41;72.08
64189;BME280;50493;50.970;10.082;2023-12-20T04:27:58;98967.53;;;6.51;71.18
64189;BME280;50493;50.970;10.082;2023-12-20T04:30:23;98972.72;;;6.52;71.65
64189;BME280;50493;50.970;10.082;2023-12-20T04:32:48;98975.38;;;6.48;71.05
64189;BME280;50493;50.970;10.082;2023-12-20T04:35:13;98970.09;;;6.54;69.64
64189;BME280;50493;50.970;10.082;2023-12-20T04:37:40;98968.25;;;6.65;70.54
64189;BME280;50493;50.970;10.082;2023-12-20T04:40:07;98973.41;;;6.68;71.22
64189;BME280;50493;50.970;10.082;2023-12-20T04:42:33;98981.41;;;6.48;70.44
64189;BME280;50493;50.970;10.082;2023-12-20T04:44:58;98976.47;;;6.30;72.20
64189;BME280;50493;50.970;10.082;2023-12-20T04:47:24;98979.84;;;6.36;69.25
64189;BME280;50493;50.970;10.082;2023-12-20T04:49:49;98974.06;;;6.06;70.83
64189;BME280;50493;50.970;10.082;2023-12-20T04:52:14;98978.03;;;5.43;70.84
64189;BME280;50493;50.970;10.082;2023-12-20T04:54:41;98990.72;;;4.24;74.83
64189;BME280;50493;50.970;10.082;2023-12-20T04:57:06;98988.16;;;4.02;77.01
64189;BME280;50493;50.970;10.082;2023-12-20T04:59:32;98984.72;;;3.76;78.55
64189;BME280;50493;50.970;10.082;2023-12-20T05:01:57;98990.75;;;3.64;79.66
64189;BME280;50493;50.970;10.082;2023-12-20T05:04:22;98993.31;;;3.33;80.58
64189;BME280;50493;50.970;10.082;2023-12-20T05:06:48;98987.25;;;4.22;77.11
64189;BME280;50493;50.970;10.082;2023-12-20T05:09:15;98993.34;;;4.04;77.52
64189;BME280;50493;50.970;10.082;2023-12-20T05:11:41;98988.91;;;4.48;77.00
64189;BME280;50493;50.970;10.082;2023-12-20T05:14:07;98988.78;;;4.79;75.85
64189;BME280;50493;50.970;10.082;2023-12-20T05:16:32;98986.69;;;5.47;73.49
64189;BME280;50493;50.970;10.082;2023-12-20T05:18:57;98987.50;;;5.57;72.31
64189;BME280;50493;50.970;10.082;2023-12-20T05:21:25;98986.69;;;5.42;73.13
64189;BME280;50493;50.970;10.082;2023-12-20T05:23:51;98986.66;;;5.52;72.40
64189;BME280;50493;50.970;10.082;2023-12-20T05:26:16;98993.34;;;5.79;70.62
64189;BME280;50493;50.970;10.082;2023-12-20T05:28:43;99000.34;;;5.69;69.61
64189;BME280;50493;50.970;10.082;2023-12-20T05:31:08;99005.47;;;5.79;71.97
64189;BME280;50493;50.970;10.082;2023-12-20T05:33:34;99005.41;;;5.85;71.21
64189;BME280;50493;50.970;10.082;2023-12-20T05:35:59;99008.81;;;5.90;68.99
64189;BME280;50493;50.970;10.082;2023-12-20T05:38:25;99012.94;;;6.14;68.62
64189;BME280;50493;50.970;10.082;2023-12-20T05:40:50;99008.50;;;6.24;69.79
64189;BME280;50493;50.970;10.082;2023-12-20T05:43:15;99011.88;;;6.35;69.69
64189;BME280;50493;50.970;10.082;2023-12-20T05:45:42;99019.56;;;6.44;70.25
64189;BME280;50493;50.970;10.082;2023-12-20T05:48:07;99012.00;;;6.23;68.48
64189;BME280;50493;50.970;10.082;2023-12-20T05:50:33;99020.69;;;6.19;69.47
64189;BME280;50493;50.970;10.082;2023-12-20T05:53:00;99025.72;;;6.34;69.90
64189;BME280;50493;50.970;10.082;2023-12-20T05:55:25;99015.34;;;6.34;68.29
64189;BME280;50493;50.970;10.082;2023-12-20T05:57:50;99006.63;;;6.38;69.16
64189;BME280;50493;50.970;10.082;2023-12-20T06:00:16;99007.03;;;5.98;70.48
64189;BME280;50493;50.970;10.082;2023-12-20T06:02:43;99018.38;;;5.88;71.02
64189;BME280;50493;50.970;10.082;2023-12-20T06:05:09;99013.16;;;5.89;69.27
64189;BME280;50493;50.970;10.082;2023-12-20T06:07:34;99021.16;;;5.65;68.86
64189;BME280;50493;50.970;10.082;2023-12-20T06:09:59;99022.94;;;5.58;67.57
64189;BME280;50493;50.970;10.082;2023-12-20T06:12:25;99027.22;;;5.59;66.89
64189;BME280;50493;50.970;10.082;2023-12-20T06:14:52;99021.94;;;5.73;70.23
64189;BME280;50493;50.970;10.082;2023-12-20T06:17:17;99024.63;;;5.59;67.76
64189;BME280;50493;50.970;10.082;2023-12-20T06:19:44;99033.41;;;5.36;66.60
64189;BME280;50493;50.970;10.082;2023-12-20T06:22:13;99031.72;;;5.32;68.77
64189;BME280;50493;50.970;10.082;2023-12-20T06:24:38;99033.44;;;5.24;69.77
64189;BME280;50493;50.970;10.082;2023-12-20T06:27:03;99037.81;;;5.14;69.84
64189;BME280;50493;50.970;10.082;2023-12-20T06:29:29;99033.47;;;5.21;70.00
64189;BME280;50493;50.970;10.082;2023-12-20T06:31:54;99036.94;;;5.17;70.22
64189;BME280;50493;50.970;10.082;2023-12-20T06:34:19;99041.22;;;5.29;66.79
64189;BME280;50493;50.970;10.082;2023-12-20T06:36:46;99052.47;;;5.26;68.82
64189;BME280;50493;50.970;10.082;2023-12-20T06:39:11;99050.78;;;5.16;69.31
64189;BME280;50493;50.970;10.082;2023-12-20T06:41:37;99056.94;;;4.90;69.70
64189;BME280;50493;50.970;10.082;2023-12-20T06:44:03;99056.19;;;4.63;71.49
64189;BME280;50493;50.970;10.082;2023-12-20T06:46:28;99054.41;;;4.81;70.95
64189;BME280;50493;50.970;10.082;2023-12-20T06:48:53;99050.91;;;4.88;70.35
64189;BME280;50493;50.970;10.082;2023-12-20T06:51:19;99055.22;;;4.87;71.60
64189;BME280;50493;50.970;10.082;2023-12-20T06:53:46;99050.78;;;5.14;69.40
64189;BME280;50493;50.970;10.082;2023-12-20T06:56:12;99037.09;;;4.89;70.25
64189;BME280;50493;50.970;10.082;2023-12-20T06:58:37;99057.06;;;4.47;71.61
64189;BME280;50493;50.970;10.082;2023-12-20T07:01:03;99048.44;;;4.55;71.93
64189;BME280;50493;50.970;10.082;2023-12-20T07:03:29;99047.41;;;4.98;69.89
64189;BME280;50493;50.970;10.082;2023-12-20T07:05:54;99050.91;;;4.82;70.67
64189;BME280;50493;50.970;10.082;2023-12-20T07:08:20;99053.44;;;5.00;69.15
64189;BME280;50493;50.970;10.082;2023-12-20T07:10:46;99055.16;;;5.04;67.18
64189;BME280;50493;50.970;10.082;2023-12-20T07:13:12;99056.00;;;5.05;65.60
64189;BME280;50493;50.970;10.082;2023-12-20T07:15:37;99061.19;;;5.03;67.13
64189;BME280;50493;50.970;10.082;2023-12-20T07:18:03;99045.66;;;5.06;66.30
64189;BME280;50493;50.970;10.082;2023-12-20T07:20:30;99052.56;;;5.04;69.04
64189;BME280;50493;50.970;10.082;2023-12-20T07:22:55;99056.06;;;4.94;68.18
64189;BME280;50493;50.970;10.082;2023-12-20T07:25:20;99052.59;;;5.01;69.62
64189;BME280;50493;50.970;10.082;2023-12-20T07:27:47;99056.00;;;5.03;67.00
64189;BME280;50493;50.970;10.082;2023-12-20T07:30:12;99067.31;;;4.93;69.83
64189;BME280;50493;50.970;10.082;2023-12-20T07:32:38;99064.59;;;5.19;68.60
64189;BME280;50493;50.970;10.082;2023-12-20T07:35:04;99069.78;;;5.19;68.61
64189;BME280;50493;50.970;10.082;2023-12-20T07:37:30;99068.03;;;5.20;68.64
64189;BME280;50493;50.970;10.082;2023-12-20T07:39:55;99066.38;;;5.06;67.79
64189;BME280;50493;50.970;10.082;2023-12-20T07:42:21;99068.06;;;5.09;68.04
64189;BME280;50493;50.970;10.082;2023-12-20T07:44:48;99073.22;;;5.24;68.54
64189;BME280;50493;50.970;10.082;2023-12-20T07:47:14;99068.94;;;5.17;67.79
64189;BME280;50493;50.970;10.082;2023-12-20T07:49:42;99064.56;;;5.27;68.81
64189;BME280;50493;50.970;10.082;2023-12-20T07:52:07;99061.03;;;5.40;67.62
64189;BME280;50493;50.970;10.082;2023-12-20T07:54:33;99062.03;;;5.10;68.81
64189;BME280;50493;50.970;10.082;2023-12-20T07:56:58;99069.91;;;4.87;68.50
64189;BME280;50493;50.970;10.082;2023-12-20T07:59:24;99069.75;;;5.21;68.85
64189;BME280;50493;50.970;10.082;2023-12-20T08:01:50;99068.03;;;5.20;67.22
64189;BME280;50493;50.970;10.082;2023-12-20T08:04:16;99078.28;;;5.48;66.98
64189;BME280;50493;50.970;10.082;2023-12-20T08:06:41;99074.81;;;5.52;66.53
64189;BME280;50493;50.970;10.082;2023-12-20T08:09:06;99086.94;;;5.43;66.69
64189;BME280;50493;50.970;10.082;2023-12-20T08:11:31;99082.59;;;5.42;66.82
64189;BME280;50493;50.970;10.082;2023-12-20T08:13:57;99093.91;;;5.32;66.00
64189;BME280;50493;50.970;10.082;2023-12-20T08:16:22;99101.63;;;5.48;67.29
64189;BME280;50493;50.970;10.082;2023-12-20T08:18:50;99099.03;;;5.45;67.33
64189;BME280;50493;50.970;10.082;2023-12-20T08:21:15;99092.97;;;5.46;65.88
64189;BME280;50493;50.970;10.082;2023-12-20T08:23:40;99099.13;;;5.20;67.42
64189;BME280;50493;50.970;10.082;2023-12-20T08:26:06;99096.50;;;5.29;67.41
64189;BME280;50493;50.970;10.082;2023-12-20T08:28:32;99102.59;;;5.19;66.86
64189;BME280;50493;50.970;10.082;2023-12-20T08:30:57;99102.59;;;5.16;67.85
64189;BME280;50493;50.970;10.082;2023-12-20T08:33:23;99104.22;;;5.41;66.90
64189;BME280;50493;50.970;10.082;2023-12-20T08:35:49;99105.06;;;5.48;66.58
64189;BME280;50493;50.970;10.082;2023-12-20T08:38:15;99095.50;;;5.61;66.45
64189;BME280;50493;50.970;10.082;2023-12-20T08:40:41;99089.28;;;5.85;65.04
64189;BME280;50493;50.970;10.082;2023-12-20T08:43:07;99083.28;;;5.79;64.30
64189;BME280;50493;50.970;10.082;2023-12-20T08:45:32;99098.94;;;5.63;64.98
64189;BME280;50493;50.970;10.082;2023-12-20T08:47:57;99092.03;;;5.59;65.36
64189;BME280;50493;50.970;10.082;2023-12-20T08:50:23;99088.53;;;5.69;64.90
64189;BME280;50493;50.970;10.082;2023-12-20T08:52:49;99089.38;;;5.73;66.67
64189;BME280;50493;50.970;10.082;2023-12-20T08:55:15;99086.66;;;5.93;64.99
64189;BME280;50493;50.970;10.082;2023-12-20T08:57:41;99078.97;;;5.76;64.83
64189;BME280;50493;50.970;10.082;2023-12-20T09:00:08;99079.97;;;5.53;65.29
64189;BME280;50493;50.970;10.082;2023-12-20T09:02:33;99085.19;;;5.42;66.05
64189;BME280;50493;50.970;10.082;2023-12-20T09:05:01;99086.94;;;5.50;65.78
64189;BME280;50493;50.970;10.082;2023-12-20T09:07:26;99080.06;;;5.33;65.63
64189;BME280;50493;50.970;10.082;2023-12-20T09:09:54;99075.63;;;5.60;65.65
64189;BME280;50493;50.970;10.082;2023-12-20T09:12:19;99064.41;;;5.58;65.17
64189;BME280;50493;50.970;10.082;2023-12-20T09:14:45;99073.06;;;5.57;64.52
64189;BME280;50493;50.970;10.082;2023-12-20T09:17:11;99070.47;;;5.57;65.69
64189;BME280;50493;50.970;10.082;2023-12-20T09:19:37;99069.66;;;5.49;65.13
64189;BME280;50493;50.970;10.082;2023-12-20T09:22:03;99077.44;;;5.49;65.10
64189;BME280;50493;50.970;10.082;2023-12-20T09:24:29;99073.00;;;5.66;64.03
64189;BME280;50493;50.970;10.082;2023-12-20T09:26:56;99078.31;;;5.43;65.73
64189;BME280;50493;50.970;10.082;2023-12-20T09:29:22;99072.22;;;5.42;65.22
64189;BME280;50493;50.970;10.082;2023-12-20T09:31:47;99075.69;;;5.40;65.24
64189;BME280;50493;50.970;10.082;2023-12-20T09:34:14;99072.22;;;5.42;65.46
64189;BME280;50493;50.970;10.082;2023-12-20T09:36:39;99074.91;;;5.24;65.24
64189;BME280;50493;50.970;10.082;2023-12-20T09:39:11;99091.41;;;5.06;66.72
64189;BME280;50493;50.970;10.082;2023-12-20T09:41:37;99087.00;;;5.25;66.77
64189;BME280;50493;50.970;10.082;2023-12-20T09:44:08;99083.50;;;5.38;65.84
64189;BME280;50493;50.970;10.082;2023-12-20T09:46:38;99087.13;;;5.06;66.75
64189;BME280;50493;50.970;10.082;2023-12-20T09:49:08;99087.03;;;5.22;66.24
64189;BME280;50493;50.970;10.082;2023-12-20T09:51:34;99081.66;;;5.59;64.68
64189;BME280;50493;50.970;10.082;2023-12-20T09:54:01;99079.06;;;5.65;64.17
64189;BME280;50493;50.970;10.082;2023-12-20T09:56:28;99081.75;;;5.37;65.93
64189;BME280;50493;50.970;10.082;2023-12-20T09:58:54;99073.06;;;5.51;66.28
64189;BME280;50493;50.970;10.082;2023-12-20T10:01:21;99085.31;;;5.25;67.07
64189;BME280;50493;50.970;10.082;2023-12-20T10:03:47;99061.88;;;5.46;65.90
64189;BME280;50493;50.970;10.082;2023-12-20T10:06:13;99067.06;;;5.46;66.01
64189;BME280;50493;50.970;10.082;2023-12-20T10:08:38;99055.03;;;5.32;65.89
64189;BME280;50493;50.970;10.082;2023-12-20T10:11:04;99056.69;;;5.50;66.40
64189;BME280;50493;50.970;10.082;2023-12-20T10:13:29;99053.88;;;5.80;64.76
64189;BME280;50493;50.970;10.082;2023-12-20T10:15:55;99049.75;;;5.51;65.88
64189;BME280;50493;50.970;10.082;2023-12-20T10:18:22;99054.09;;;5.46;65.81
64189;BME280;50493;50.970;10.082;2023-12-20T10:20:48;99036.75;;;5.57;64.35
64189;BME280;50493;50.970;10.082;2023-12-20T10:23:15;99033.28;;;5.55;65.97
64189;BME280;50493;50.970;10.082;2023-12-20T10:25:41;99030.63;;;5.66;64.25
64189;BME280;50493;50.970;10.082;2023-12-20T10:28:10;99032.47;;;5.48;65.07
64189;BME280;50493;50.970;10.082;2023-12-20T10:30:36;99036.63;;;5.72;64.86
64189;BME280;50493;50.970;10.082;2023-12-20T10:33:02;99038.81;;;4.93;69.01
64189;BME280;50493;50.970;10.082;2023-12-20T10:35:28;99040.38;;;5.28;68.14
64189;BME280;50493;50.970;10.082;2023-12-20T10:37:55;99030.53;;;5.78;65.14
64189;BME280;50493;50.970;10.082;2023-12-20T10:40:21;99029.13;;;5.32;65.68
64189;BME280;50493;50.970;10.082;2023-12-20T10:42:47;99038.63;;;5.27;66.38
64189;BME280;50493;50.970;10.082;2023-12-20T10:45:12;99023.28;;;4.87;69.26
64189;BME280;50493;50.970;10.082;2023-12-20T10:47:39;99026.75;;;4.89;69.44
64189;BME280;50493;50.970;10.082;2023-12-20T10:50:06;99015.44;;;5.02;68.95
64189;BME280;50493;50.970;10.082;2023-12-20T10:52:35;99013.56;;;5.32;67.17
64189;BME280;50493;50.970;10.082;2023-12-20T10:55:01;99019.81;;;4.91;69.66
64189;BME280;50493;50.970;10.082;2023-12-20T10:57:27;99009.19;;;5.37;67.09
64189;BME280;50493;50.970;10.082;2023-12-20T10:59:54;98998.16;;;5.06;67.77
64189;BME280;50493;50.970;10.082;2023-12-20T11:02:21;98997.50;;;4.62;71.18
64189;BME280;50493;50.970;10.082;2023-12-20T11:04:50;98986.81;;;5.21;69.80
64189;BME280;50493;50.970;10.082;2023-12-20T11:07:23;98992.66;;;5.60;66.84
64189;BME280;50493;50.970;10.082;2023-12-20T11:10:03;98996.13;;;5.56;65.71
64189;BME280;50493;50.970;10.082;2023-12-20T11:12:38;98999.00;;;5.09;69.36
64189;BME280;50493;50.970;10.082;2023-12-20T11:15:07;98987.03;;;4.84;70.41
64189;BME280;50493;50.970;10.082;2023-12-20T11:17:33;98991.88;;;5.42;68.34
64189;BME280;50493;50.970;10.082;2023-12-20T11:20:08;98990.13;;;5.54;65.16
64189;BME280;50493;50.970;10.082;2023-12-20T11:22:36;98987.56;;;5.41;67.91
64189;BME280;50493;50.970;10.082;2023-12-20T11:25:07;98993.00;;;5.01;69.41
64189;BME280;50493;50.970;10.082;2023-12-20T11:27:33;98996.47;;;4.94;69.81
64189;BME280;50493;50.970;10.082;2023-12-20T11:29:58;98979.94;;;5.17;68.30
64189;BME280;50493;50.970;10.082;2023-12-20T11:32:30;98983.66;;;4.69;70.13
64189;BME280;50493;50.970;10.082;2023-12-20T11:34:56;98988.56;;;5.22;69.00
64189;BME280;50493;50.970;10.082;2023-12-20T11:37:21;98985.03;;;5.29;68.92
64189;BME280;50493;50.970;10.082;2023-12-20T11:39:54;98984.47;;;4.84;71.33
64189;BME280;50493;50.970;10.082;2023-12-20T11:42:21;98960.78;;;5.39;68.51
64189;BME280;50493;50.970;10.082;2023-12-20T11:44:47;98964.31;;;5.32;68.70
64189;BME280;50493;50.970;10.082;2023-12-20T11:47:13;98969.53;;;5.26;66.92
64189;BME280;50493;50.970;10.082;2023-12-20T11:49:41;98966.13;;;5.18;69.16
64189;BME280;50493;50.970;10.082;2023-12-20T11:52:06;98962.56;;;5.34;67.13
64189;BME280;50493;50.970;10.082;2023-12-20T11:54:31;98974.78;;;5.14;70.17
64189;BME280;50493;50.970;10.082;2023-12-20T11:56:57;98955.50;;;5.55;66.79
64189;BME280;50493;50.970;10.082;2023-12-20T11:59:24;98953.75;;;5.58;65.84
64189;BME280;50493;50.970;10.082;2023-12-20T12:01:49;98952.25;;;5.28;69.43
64189;BME280;50493;50.970;10.082;2023-12-20T12:04:15;98960.81;;;5.33;67.08
64189;BME280;50493;50.970;10.082;2023-12-20T12:06:42;98963.63;;;5.01;69.13
64189;BME280;50493;50.970;10.082;2023-12-20T12:09:08;98954.13;;;5.04;69.58
64189;BME280;50493;50.970;10.082;2023-12-20T12:11:33;98960.88;;;5.29;68.09
64189;BME280;50493;50.970;10.082;2023-12-20T12:13:59;98947.84;;;5.35;66.97
64189;BME280;50493;50.970;10.082;2023-12-20T12:16:25;98933.34;;;5.09;68.43
64189;BME280;50493;50.970;10.082;2023-12-20T12:18:57;98931.88;;;4.66;72.70
64189;BME280;50493;50.970;10.082;2023-12-20T12:21:22;98933.13;;;5.43;68.32
64189;BME280;50493;50.970;10.082;2023-12-20T12:23:48;98941.19;;;5.03;71.58
64189;BME280;50493;50.970;10.082;2023-12-20T12:26:13;98943.47;;;5.45;68.07
64189;BME280;50493;50.970;10.082;2023-12-20T12:28:40;98951.63;;;4.89;71.81
64189;BME280;50493;50.970;10.082;2023-12-20T12:31:05;98935.13;;;5.05;70.95
64189;BME280;50493;50.970;10.082;2023-12-20T12:33:32;98952.47;;;4.91;70.69
64189;BME280;50493;50.970;10.082;2023-12-20T12:35:58;98934.41;;;4.80;72.74
64189;BME280;50493;50.970;10.082;2023-12-20T12:38:24;98923.16;;;4.83;73.26
64189;BME280;50493;50.970;10.082;2023-12-20T12:40:49;98925.66;;;5.01;72.23
64189;BME280;50493;50.970;10.082;2023-12-20T12:43:15;98905.59;;;5.28;69.11
64189;BME280;50493;50.970;10.082;2023-12-20T12:45:40;98903.78;;;5.39;68.28
64189;BME280;50493;50.970;10.082;2023-12-20T12:48:06;98899.41;;;5.48;67.12
64189;BME280;50493;50.970;10.082;2023-12-20T12:50:33;98906.41;;;5.36;68.71
64189;BME280;50493;50.970;10.082;2023-12-20T12:52:59;98886.53;;;5.35;67.35